createdAt,value
2023-04-16T00:01:02.287Z,96.85
2023-04-16T00:03:28.934Z,96.83
2023-04-16T00:05:56.429Z,97.06
2023-04-16T00:08:24.656Z,97.13
2023-04-16T00:10:52.784Z,97.35
2023-04-16T00:13:19.626Z,97.19
2023-04-16T00:15:46.261Z,97.25
2023-04-16T00:18:12.757Z,97.71
2023-04-16T00:20:39.343Z,97.43
2023-04-16T00:23:06.088Z,97.38
2023-04-16T00:25:32.846Z,97.59
2023-04-16T00:27:59.348Z,97.46
2023-04-16T00:30:25.972Z,97.62
2023-04-16T00:32:52.523Z,97.50
2023-04-16T00:35:19.316Z,97.73
2023-04-16T00:37:45.935Z,97.66
2023-04-16T00:40:12.498Z,97.86
2023-04-16T00:42:39.069Z,97.79
2023-04-16T00:45:06.156Z,98.02
2023-04-16T00:47:33.013Z,97.70
2023-04-16T00:49:59.655Z,97.56
2023-04-16T00:52:27.505Z,97.53
2023-04-16T00:54:54.098Z,97.40
2023-04-16T00:57:23.820Z,97.43
2023-04-16T00:59:50.552Z,97.20
2023-04-16T01:02:17.694Z,96.99
2023-04-16T01:04:44.345Z,96.92
2023-04-16T01:07:11.185Z,96.89
2023-04-16T01:09:37.812Z,96.88
2023-04-16T01:12:04.659Z,97.06
2023-04-16T01:14:36.244Z,97.04
2023-04-16T01:17:06.304Z,97.15
2023-04-16T01:19:36.145Z,97.12
2023-04-16T01:22:03.695Z,97.18
2023-04-16T01:24:30.469Z,97.22
2023-04-16T01:27:00.176Z,97.27
2023-04-16T01:29:27.388Z,97.20
2023-04-16T01:31:54.483Z,97.45
2023-04-16T01:34:21.122Z,97.18
2023-04-16T01:36:47.663Z,97.36
2023-04-16T01:39:16.266Z,97.29
2023-04-16T01:41:43.597Z,97.28
2023-04-16T01:44:10.035Z,97.37
2023-04-16T01:46:37.856Z,97.45
2023-04-16T01:49:05.593Z,97.19
2023-04-16T01:51:32.278Z,97.12
2023-04-16T01:53:59.004Z,97.71
2023-04-16T01:56:26.375Z,97.99
2023-04-16T01:58:53.530Z,98.07
2023-04-16T02:01:20.397Z,98.61
2023-04-16T02:03:47.621Z,98.56
2023-04-16T02:06:14.954Z,98.56
2023-04-16T02:08:41.801Z,98.62
2023-04-16T02:11:08.253Z,98.71
2023-04-16T02:13:34.870Z,98.75
2023-04-16T02:16:02.411Z,98.94
2023-04-16T02:18:28.870Z,98.79
2023-04-16T02:20:58.564Z,98.75
2023-04-16T02:23:25.084Z,98.96
2023-04-16T02:25:51.694Z,99.07
2023-04-16T02:28:18.434Z,99.12
2023-04-16T02:30:45.157Z,98.94
2023-04-16T02:33:12.511Z,98.84
2023-04-16T02:35:40.299Z,98.54
2023-04-16T02:38:07.541Z,98.73
2023-04-16T02:40:34.018Z,98.73
2023-04-16T02:43:00.782Z,98.79
2023-04-16T02:45:27.632Z,98.90
2023-04-16T02:47:54.289Z,98.93
2023-04-16T02:50:20.994Z,98.96
2023-04-16T02:52:47.526Z,99.24
2023-04-16T02:55:13.994Z,99.18
2023-04-16T02:57:42.237Z,99.46
2023-04-16T03:00:09.115Z,99.52
2023-04-16T03:02:35.693Z,99.65
2023-04-16T03:05:03.185Z,99.50
2023-04-16T03:07:29.683Z,99.78
2023-04-16T03:09:56.213Z,99.82
2023-04-16T03:12:22.842Z,99.94
2023-04-16T03:14:51.797Z,99.97
2023-04-16T03:17:18.474Z,100.00
2023-04-16T03:19:45.377Z,100.00
2023-04-16T03:22:11.866Z,100.00
2023-04-16T03:24:38.346Z,100.00
2023-04-16T03:27:04.769Z,100.00
2023-04-16T03:29:31.479Z,100.00
2023-04-16T03:31:58.461Z,100.00
2023-04-16T03:34:27.842Z,100.00
2023-04-16T03:36:54.215Z,100.00
2023-04-16T03:39:20.652Z,100.00
2023-04-16T03:41:47.277Z,100.00
2023-04-16T03:44:13.904Z,100.00
2023-04-16T03:46:40.526Z,100.00
2023-04-16T03:49:07.416Z,100.00
2023-04-16T03:51:34.354Z,100.00
2023-04-16T03:54:01.002Z,100.00
2023-04-16T03:56:27.447Z,100.00
2023-04-16T03:58:53.836Z,100.00
2023-04-16T04:01:20.509Z,100.00
2023-04-16T04:03:47.284Z,100.00
2023-04-16T04:06:13.983Z,100.00
2023-04-16T04:08:40.814Z,100.00
2023-04-16T04:11:07.332Z,100.00
2023-04-16T04:13:33.821Z,100.00
2023-04-16T04:16:00.660Z,100.00
2023-04-16T04:18:27.288Z,100.00
2023-04-16T04:20:53.834Z,100.00
2023-04-16T04:23:20.215Z,100.00
2023-04-16T04:25:46.980Z,100.00
2023-04-16T04:28:13.508Z,100.00
2023-04-16T04:30:39.930Z,100.00
2023-04-16T04:33:06.840Z,100.00
2023-04-16T04:35:33.845Z,100.00
2023-04-16T04:38:02.544Z,100.00
2023-04-16T04:40:29.481Z,100.00
2023-04-16T04:42:56.125Z,100.00
2023-04-16T04:45:25.507Z,100.00
2023-04-16T04:47:55.152Z,100.00
2023-04-16T04:50:22.371Z,100.00
2023-04-16T04:52:48.961Z,100.00
2023-04-16T04:55:16.077Z,100.00
2023-04-16T04:57:42.793Z,100.00
2023-04-16T05:00:10.081Z,100.00
2023-04-16T05:02:36.647Z,100.00
2023-04-16T05:05:03.892Z,100.00
2023-04-16T05:07:30.772Z,100.00
2023-04-16T05:09:57.245Z,100.00
2023-04-16T05:12:23.829Z,100.00
2023-04-16T05:14:50.517Z,100.00
2023-04-16T05:17:17.017Z,100.00
2023-04-16T05:19:43.507Z,100.00
2023-04-16T05:22:10.180Z,100.00
2023-04-16T05:24:36.657Z,100.00
2023-04-16T05:27:03.201Z,100.00
2023-04-16T05:29:29.711Z,100.00
2023-04-16T05:31:56.736Z,100.00
2023-04-16T05:34:23.135Z,100.00
2023-04-16T05:36:49.864Z,100.00
2023-04-16T05:39:17.180Z,100.00
2023-04-16T05:41:43.830Z,100.00
2023-04-16T05:44:10.453Z,100.00
2023-04-16T05:46:37.105Z,100.00
2023-04-16T05:49:03.760Z,99.99
2023-04-16T05:51:30.205Z,99.93
2023-04-16T05:53:56.809Z,99.69
2023-04-16T05:56:23.447Z,99.59
2023-04-16T05:58:49.967Z,99.80
2023-04-16T06:01:16.581Z,99.76
2023-04-16T06:03:43.226Z,99.43
2023-04-16T06:06:09.966Z,99.14
2023-04-16T06:08:36.742Z,98.86
2023-04-16T06:11:03.789Z,98.35
2023-04-16T06:13:30.905Z,98.24
2023-04-16T06:15:57.537Z,98.21
2023-04-16T06:18:24.244Z,98.02
2023-04-16T06:20:50.730Z,97.92
2023-04-16T06:23:17.187Z,98.04
2023-04-16T06:25:43.583Z,97.81
2023-04-16T06:28:10.002Z,96.92
2023-04-16T06:30:37.076Z,96.56
2023-04-16T06:33:03.753Z,96.54
2023-04-16T06:35:30.541Z,96.25
2023-04-16T06:37:57.111Z,96.22
2023-04-16T06:40:23.753Z,96.38
2023-04-16T06:42:50.645Z,96.35
2023-04-16T06:45:17.526Z,95.82
2023-04-16T06:47:44.412Z,95.28
2023-04-16T06:50:11.420Z,95.19
2023-04-16T06:52:38.156Z,94.95
2023-04-16T06:55:05.289Z,94.84
2023-04-16T06:57:32.108Z,94.37
2023-04-16T06:59:59.101Z,94.26
2023-04-16T07:02:26.057Z,93.47
2023-04-16T07:04:52.900Z,93.36
2023-04-16T07:07:19.671Z,92.74
2023-04-16T07:09:46.349Z,92.08
2023-04-16T07:12:13.472Z,91.81
2023-04-16T07:14:40.011Z,91.64
2023-04-16T07:17:06.782Z,91.57
2023-04-16T07:19:33.515Z,90.95
2023-04-16T07:22:00.333Z,90.67
2023-04-16T07:24:26.816Z,91.16
2023-04-16T07:26:53.758Z,90.37
2023-04-16T07:29:20.489Z,89.73
2023-04-16T07:31:47.316Z,89.02
2023-04-16T07:34:14.008Z,88.82
2023-04-16T07:36:40.964Z,89.27
2023-04-16T07:39:07.875Z,89.07
2023-04-16T07:41:34.859Z,88.27
2023-04-16T07:44:01.808Z,87.37
2023-04-16T07:46:33.336Z,87.76
2023-04-16T07:49:06.233Z,87.12
2023-04-16T07:51:33.253Z,86.85
2023-04-16T07:53:59.897Z,86.41
2023-04-16T07:56:26.569Z,85.98
2023-04-16T07:58:53.374Z,85.32
2023-04-16T08:01:20.442Z,85.77
2023-04-16T08:03:47.405Z,86.25
2023-04-16T08:06:14.073Z,85.51
2023-04-16T08:08:40.645Z,85.28
2023-04-16T08:11:07.162Z,85.42
2023-04-16T08:17:21.658Z,84.56
2023-04-16T08:19:48.203Z,84.19
2023-04-16T08:22:15.348Z,84.88
2023-04-16T08:24:42.100Z,84.23
2023-04-16T08:27:18.626Z,83.52
2023-04-16T08:29:46.839Z,83.33
2023-04-16T08:32:13.535Z,83.64
2023-04-16T08:34:40.560Z,83.63
2023-04-16T08:37:07.193Z,83.24
2023-04-16T08:39:34.163Z,83.11
2023-04-16T08:42:04.666Z,83.30
2023-04-16T08:44:33.842Z,82.96
2023-04-16T08:47:02.215Z,83.09
2023-04-16T08:49:29.500Z,83.75
2023-04-16T08:51:57.046Z,83.42
2023-04-16T08:54:58.940Z,83.02
2023-04-16T08:57:33.884Z,83.41
2023-04-16T09:00:01.392Z,83.69
2023-04-16T09:02:28.387Z,83.43
2023-04-16T09:04:56.530Z,83.46
2023-04-16T09:07:25.414Z,84.01
2023-04-16T09:09:53.330Z,84.25
2023-04-16T09:12:23.215Z,84.20
2023-04-16T09:14:50.525Z,84.52
2023-04-16T09:17:18.247Z,84.32
2023-04-16T09:19:45.839Z,84.56
2023-04-16T09:22:12.628Z,84.37
2023-04-16T09:24:39.421Z,84.29
2023-04-16T09:27:07.389Z,83.87
2023-04-16T09:29:38.203Z,83.69
2023-04-16T09:32:07.333Z,83.81
2023-04-16T09:34:35.258Z,83.87
2023-04-16T09:37:18.134Z,83.58
2023-04-16T09:39:45.903Z,83.56
2023-04-16T09:42:14.275Z,83.36
2023-04-16T09:44:40.875Z,82.80
2023-04-16T09:47:08.708Z,83.45
2023-04-16T09:49:40.892Z,83.38
2023-04-16T09:52:14.580Z,83.69
2023-04-16T09:54:47.371Z,84.21
2023-04-16T09:57:18.315Z,84.09
2023-04-16T09:59:44.784Z,84.37
2023-04-16T10:02:15.188Z,84.48
2023-04-16T10:04:51.357Z,84.13
2023-04-16T10:07:18.964Z,84.41
2023-04-16T10:09:48.544Z,84.92
2023-04-16T10:12:16.308Z,85.74
2023-04-16T10:14:43.297Z,86.32
2023-04-16T10:17:10.367Z,86.95
2023-04-16T10:19:37.478Z,87.65
2023-04-16T10:22:05.064Z,88.07
2023-04-16T10:24:33.112Z,88.55
2023-04-16T10:27:00.668Z,89.52
2023-04-16T10:29:28.834Z,90.40
2023-04-16T10:31:56.072Z,91.26
2023-04-16T10:34:23.931Z,91.97
2023-04-16T10:36:54.212Z,92.34
2023-04-16T10:39:23.466Z,93.17
2023-04-16T10:41:51.403Z,93.31
2023-04-16T10:44:19.639Z,93.77
2023-04-16T10:46:49.855Z,93.61
2023-04-16T10:49:19.279Z,94.12
2023-04-16T10:52:12.946Z,94.62
2023-04-16T10:54:40.207Z,94.77
2023-04-16T10:57:08.731Z,95.05
2023-04-16T10:59:38.203Z,95.14
2023-04-16T11:02:16.008Z,95.36
2023-04-16T11:04:45.278Z,95.20
2023-04-16T11:07:14.902Z,95.66
2023-04-16T11:09:56.140Z,96.22
2023-04-16T11:12:41.517Z,96.38
2023-04-16T11:15:09.320Z,96.59
2023-04-16T11:17:51.565Z,97.19
2023-04-16T11:20:25.745Z,96.93
2023-04-16T11:22:54.569Z,97.16
2023-04-16T11:25:24.991Z,97.18
2023-04-16T11:27:52.454Z,97.82
2023-04-16T11:30:27.946Z,98.06
2023-04-16T11:32:54.911Z,98.43
2023-04-16T11:35:22.005Z,98.51
2023-04-16T11:37:49.064Z,98.51
2023-04-16T11:40:16.251Z,98.44
2023-04-16T11:42:44.163Z,98.03
2023-04-16T11:45:12.467Z,97.92
2023-04-16T11:47:52.281Z,97.77
2023-04-16T11:50:27.825Z,97.31
2023-04-16T11:52:56.621Z,96.97
2023-04-16T11:55:24.397Z,96.92
2023-04-16T11:57:51.935Z,96.65
2023-04-16T12:00:23.088Z,96.45
2023-04-16T12:02:55.177Z,95.62
2023-04-16T12:05:34.598Z,95.12
2023-04-16T12:08:03.325Z,94.82
2023-04-16T12:10:31.178Z,94.76
2023-04-16T12:13:15.092Z,94.26
2023-04-16T12:15:49.437Z,94.32
2023-04-16T12:18:16.929Z,94.55
2023-04-16T12:20:45.472Z,94.69
2023-04-16T12:23:25.267Z,94.80
2023-04-16T12:25:52.876Z,94.67
2023-04-16T12:28:38.310Z,94.60
2023-04-16T12:31:06.611Z,94.74
2023-04-16T12:33:33.359Z,94.33
2023-04-16T12:36:00.256Z,94.29
2023-04-16T12:38:27.665Z,94.50
2023-04-16T12:40:56.834Z,94.94
2023-04-16T12:43:24.019Z,94.77
2023-04-16T12:45:51.082Z,94.47
2023-04-16T12:48:17.922Z,94.31
2023-04-16T12:50:44.786Z,94.57
2023-04-16T12:53:12.197Z,94.19
2023-04-16T12:55:39.219Z,93.62
2023-04-16T12:58:06.799Z,92.85
2023-04-16T13:00:33.729Z,93.12
2023-04-16T13:03:00.964Z,91.37
2023-04-16T13:05:27.831Z,90.88
2023-04-16T13:07:54.682Z,90.36
2023-04-16T13:10:22.073Z,89.46
2023-04-16T13:12:48.908Z,87.63
2023-04-16T13:15:15.775Z,85.65
2023-04-16T13:17:42.501Z,84.70
2023-04-16T13:20:10.236Z,85.35
2023-04-16T13:22:37.231Z,84.35
2023-04-16T13:25:04.129Z,83.56
2023-04-16T13:27:32.100Z,82.02
2023-04-16T13:29:58.852Z,80.16
2023-04-16T13:32:25.686Z,80.25
2023-04-16T13:34:52.489Z,79.86
2023-04-16T13:37:19.234Z,77.66
2023-04-16T13:39:45.968Z,78.93
2023-04-16T13:42:12.675Z,77.98
2023-04-16T13:44:39.461Z,75.82
2023-04-16T13:47:06.623Z,74.27
2023-04-16T13:49:35.767Z,73.65
2023-04-16T13:52:02.881Z,71.24
2023-04-16T13:54:29.543Z,67.08
2023-04-16T13:56:56.355Z,65.93
2023-04-16T13:59:23.625Z,61.00
2023-04-16T14:01:50.235Z,55.88
2023-04-16T14:04:16.916Z,56.39
2023-04-16T14:06:43.625Z,57.30
2023-04-16T14:09:11.268Z,57.93
2023-04-16T14:11:38.108Z,58.98
2023-04-16T14:14:05.575Z,59.92
2023-04-16T14:16:33.119Z,59.92
2023-04-16T14:18:59.958Z,60.50
2023-04-16T14:21:27.373Z,61.20
2023-04-16T14:23:54.771Z,61.70
2023-04-16T14:26:21.479Z,62.97
2023-04-16T14:28:49.172Z,64.18
2023-04-16T14:31:18.168Z,65.14
2023-04-16T14:33:44.739Z,65.69
2023-04-16T14:36:12.168Z,66.69
2023-04-16T14:38:38.773Z,67.99
2023-04-16T14:41:05.540Z,68.97
2023-04-16T14:43:32.035Z,69.62
2023-04-16T14:45:59.919Z,70.03
2023-04-16T14:48:26.386Z,70.25
2023-04-16T14:50:53.657Z,70.14
2023-04-16T14:53:20.514Z,69.89
2023-04-16T14:55:47.595Z,70.37
2023-04-16T14:58:14.212Z,70.38
2023-04-16T15:00:40.971Z,69.70
2023-04-16T15:03:07.947Z,69.42
2023-04-16T15:05:35.672Z,70.01
2023-04-16T15:08:02.319Z,70.51
2023-04-16T15:10:28.995Z,71.19
2023-04-16T15:12:55.720Z,71.66
2023-04-16T15:15:22.498Z,71.54
2023-04-16T15:17:51.039Z,71.35
2023-04-16T15:20:18.042Z,69.98
2023-04-16T15:22:44.759Z,70.44
2023-04-16T15:25:11.531Z,70.90
2023-04-16T15:27:38.399Z,71.39
2023-04-16T15:30:06.468Z,71.84
2023-04-16T15:32:33.181Z,70.59
2023-04-16T15:34:59.996Z,69.13
2023-04-16T15:37:26.737Z,68.18
2023-04-16T15:39:53.476Z,67.08
2023-04-16T15:42:20.679Z,66.18
2023-04-16T15:44:47.309Z,65.66
2023-04-16T15:47:14.022Z,65.22
2023-04-16T15:49:40.874Z,65.11
2023-04-16T15:52:07.565Z,64.60
2023-04-16T15:54:34.445Z,64.55
2023-04-16T15:57:01.637Z,63.82
2023-04-16T15:59:28.413Z,62.94
2023-04-16T16:01:55.436Z,63.75
2023-04-16T16:04:22.757Z,63.79
2023-04-16T16:06:50.296Z,63.69
2023-04-16T16:09:17.034Z,62.90
2023-04-16T16:11:43.656Z,63.86
2023-04-16T16:14:10.799Z,63.74
2023-04-16T16:16:37.900Z,64.19
2023-04-16T16:19:04.820Z,64.69
2023-04-16T16:21:32.458Z,65.30
2023-04-16T16:23:59.068Z,64.84
2023-04-16T16:26:25.873Z,64.97
2023-04-16T16:28:52.565Z,64.95
2023-04-16T16:31:19.332Z,65.32
2023-04-16T16:33:46.293Z,65.46
2023-04-16T16:36:13.353Z,65.96
2023-04-16T16:38:41.091Z,66.35
2023-04-16T16:41:08.063Z,66.64
2023-04-16T16:43:37.854Z,66.81
2023-04-16T16:46:07.249Z,66.59
2023-04-16T16:48:33.910Z,67.34
2023-04-16T16:51:00.599Z,67.80
2023-04-16T16:53:27.444Z,68.58
2023-04-16T16:55:54.411Z,69.30
2023-04-16T16:58:21.001Z,70.09
2023-04-16T17:00:47.842Z,70.50
2023-04-16T17:03:14.889Z,71.06
2023-04-16T17:05:41.878Z,71.64
2023-04-16T17:08:08.702Z,72.07
2023-04-16T17:10:35.800Z,72.65
2023-04-16T17:13:02.344Z,73.25
2023-04-16T17:15:28.956Z,74.05
2023-04-16T17:17:55.839Z,74.48
2023-04-16T17:20:22.594Z,74.65
2023-04-16T17:22:49.301Z,74.98
2023-04-16T17:25:16.043Z,75.19
2023-04-16T17:27:42.973Z,75.25
2023-04-16T17:30:09.860Z,75.40
2023-04-16T17:32:36.879Z,75.89
2023-04-16T17:35:04.318Z,76.06
2023-04-16T17:37:31.180Z,76.55
2023-04-16T17:39:58.104Z,76.52
2023-04-16T17:42:24.712Z,76.76
2023-04-16T17:44:51.470Z,77.00
2023-04-16T17:47:18.144Z,77.17
2023-04-16T17:49:44.964Z,77.39
2023-04-16T17:52:11.685Z,77.52
2023-04-16T17:54:38.622Z,77.67
2023-04-16T17:57:05.397Z,78.31
2023-04-16T17:59:33.085Z,78.64
2023-04-16T18:02:00.003Z,78.56
2023-04-16T18:04:26.700Z,78.36
2023-04-16T18:06:53.555Z,78.28
2023-04-16T18:09:20.170Z,78.19
2023-04-16T18:11:46.934Z,78.32
2023-04-16T18:14:16.741Z,78.63
2023-04-16T18:16:45.954Z,78.94
2023-04-16T18:19:12.659Z,78.82
2023-04-16T18:21:39.550Z,78.92
2023-04-16T18:24:06.747Z,79.02
2023-04-16T18:26:35.764Z,79.38
2023-04-16T18:29:03.162Z,79.48
2023-04-16T18:31:29.927Z,79.56
2023-04-16T18:33:58.257Z,79.86
2023-04-16T18:36:26.679Z,80.28
2023-04-16T18:39:01.639Z,80.62
2023-04-16T18:41:29.865Z,81.10
2023-04-16T18:43:56.466Z,81.45
2023-04-16T18:46:23.275Z,81.64
2023-04-16T18:48:49.988Z,81.69
2023-04-16T18:51:17.267Z,82.05
2023-04-16T18:53:45.601Z,82.57
2023-04-16T18:56:12.492Z,82.65
2023-04-16T18:58:39.058Z,83.01
2023-04-16T19:01:10.753Z,83.08
2023-04-16T19:03:37.833Z,83.34
2023-04-16T19:06:04.722Z,84.09
2023-04-16T19:08:31.349Z,84.15
2023-04-16T19:10:57.965Z,84.56
2023-04-16T19:13:24.714Z,84.79
2023-04-16T19:15:51.317Z,85.03
2023-04-16T19:18:18.044Z,85.51
2023-04-16T19:20:44.741Z,85.56
2023-04-16T19:23:11.556Z,86.26
2023-04-16T19:25:39.895Z,86.34
2023-04-16T19:28:06.573Z,86.48
2023-04-16T19:30:33.416Z,86.40
2023-04-16T19:33:00.039Z,86.65
2023-04-16T19:35:27.096Z,86.94
2023-04-16T19:37:56.649Z,86.66
2023-04-16T19:40:23.391Z,87.09
2023-04-16T19:42:49.960Z,87.38
2023-04-16T19:45:17.637Z,87.67
2023-04-16T19:47:44.848Z,87.68
2023-04-16T19:50:11.682Z,87.77
2023-04-16T19:52:38.982Z,87.93
2023-04-16T19:55:07.047Z,87.84
2023-04-16T19:57:33.698Z,88.43
2023-04-16T20:00:00.310Z,88.38
2023-04-16T20:02:27.055Z,88.46
2023-04-16T20:04:53.824Z,88.90
2023-04-16T20:07:20.531Z,88.97
2023-04-16T20:09:47.322Z,88.74
2023-04-16T20:12:14.280Z,88.94
2023-04-16T20:14:41.870Z,88.96
2023-04-16T20:17:09.902Z,89.07
2023-04-16T20:19:40.885Z,88.82
2023-04-16T20:22:07.494Z,88.50
2023-04-16T20:24:34.296Z,88.50
2023-04-16T20:27:01.673Z,88.52
2023-04-16T20:29:28.509Z,88.33
2023-04-16T20:31:55.228Z,88.42
2023-04-16T20:34:21.862Z,88.15
2023-04-16T20:36:48.464Z,88.14
2023-04-16T20:39:20.438Z,88.21
2023-04-16T20:41:56.400Z,88.05
2023-04-16T20:44:40.273Z,87.94
2023-04-16T20:47:11.656Z,87.86
2023-04-16T20:49:38.472Z,87.79
2023-04-16T20:52:05.624Z,87.61
2023-04-16T20:54:32.331Z,87.57
2023-04-16T20:56:59.209Z,87.54
2023-04-16T20:59:26.115Z,87.52
2023-04-16T21:01:52.744Z,87.39
2023-04-16T21:04:19.439Z,87.47
2023-04-16T21:06:46.403Z,87.32
2023-04-16T21:09:13.463Z,87.31
2023-04-16T21:11:40.385Z,87.35
2023-04-16T21:14:07.158Z,87.34
2023-04-16T21:16:33.854Z,87.20
2023-04-16T21:19:00.582Z,87.38
2023-04-16T21:21:27.520Z,87.40
2023-04-16T21:23:54.542Z,87.54
2023-04-16T21:26:21.366Z,87.47
2023-04-16T21:28:48.402Z,87.52
2023-04-16T21:31:15.310Z,87.80
2023-04-16T21:33:42.004Z,87.76
2023-04-16T21:36:08.745Z,87.65
2023-04-16T21:38:35.471Z,87.63
2023-04-16T21:41:02.367Z,87.75
2023-04-16T21:43:31.837Z,87.57
2023-04-16T21:45:59.598Z,87.77
2023-04-16T21:48:27.000Z,87.73
2023-04-16T21:50:59.118Z,87.59
2023-04-16T21:53:27.902Z,87.72
2023-04-16T21:55:54.501Z,87.87
2023-04-16T21:58:21.205Z,88.10
2023-04-16T22:00:47.968Z,88.38
2023-04-16T22:03:14.870Z,88.57
2023-04-16T22:05:41.553Z,88.61
2023-04-16T22:08:23.251Z,88.82
2023-04-16T22:10:51.126Z,88.70
2023-04-16T22:13:18.117Z,88.77
2023-04-16T22:15:44.990Z,88.83
2023-04-16T22:18:11.637Z,88.84
2023-04-16T22:20:39.071Z,88.88
2023-04-16T22:23:06.727Z,88.92
2023-04-16T22:25:33.446Z,88.88
2023-04-16T22:28:01.554Z,88.95
2023-04-16T22:30:28.375Z,89.17
2023-04-16T22:32:55.273Z,89.34
2023-04-16T22:35:21.963Z,89.25
2023-04-16T22:37:48.445Z,89.17
2023-04-16T22:40:15.688Z,89.22
2023-04-16T22:42:42.356Z,89.04
2023-04-16T22:45:09.168Z,88.96
2023-04-16T22:47:35.892Z,88.94
2023-04-16T22:50:03.342Z,89.04
2023-04-16T22:52:29.980Z,89.04
2023-04-16T22:54:56.567Z,89.06
2023-04-16T22:57:25.531Z,88.87
2023-04-16T22:59:53.093Z,89.04
2023-04-16T23:02:21.419Z,89.04
2023-04-16T23:04:48.115Z,88.98
2023-04-16T23:07:15.566Z,88.93
2023-04-16T23:09:42.496Z,88.80
2023-04-16T23:12:09.220Z,88.83
2023-04-16T23:14:36.796Z,89.00
2023-04-16T23:17:03.460Z,88.87
2023-04-16T23:19:31.162Z,88.99
2023-04-16T23:21:57.868Z,89.08
2023-04-16T23:24:24.444Z,88.68
2023-04-16T23:26:52.457Z,88.65
2023-04-16T23:29:19.627Z,88.62
2023-04-16T23:31:46.308Z,88.58
2023-04-16T23:34:12.917Z,88.42
2023-04-16T23:36:40.650Z,88.09
2023-04-16T23:39:07.370Z,88.31
2023-04-16T23:41:34.466Z,88.08
2023-04-16T23:44:01.070Z,88.30
2023-04-16T23:46:27.530Z,88.30
2023-04-16T23:48:55.443Z,88.21
2023-04-16T23:51:22.064Z,88.43
2023-04-16T23:53:48.759Z,88.24
2023-04-16T23:56:15.876Z,88.29
2023-04-16T23:58:42.409Z,87.99
